createdAt,value
2019-05-02T00:02:14.662Z,14.77
2019-05-02T00:04:44.959Z,15.30
2019-05-02T00:07:20.132Z,16.80
2019-05-02T00:09:48.342Z,17.27
2019-05-02T00:12:20.800Z,15.53
2019-05-02T00:14:51.035Z,15.90
2019-05-02T00:17:25.780Z,15.63
2019-05-02T00:19:54.769Z,15.03
2019-05-02T00:22:24.813Z,14.23
2019-05-02T00:24:54.896Z,14.10
2019-05-02T00:27:24.902Z,15.07
2019-05-02T00:29:58.854Z,14.47
2019-05-02T00:32:26.723Z,15.17
2019-05-02T00:34:56.762Z,15.23
2019-05-02T00:37:26.883Z,14.50
2019-05-02T00:39:56.794Z,14.70
2019-05-02T00:42:26.756Z,16.03
2019-05-02T00:44:56.694Z,15.13
2019-05-02T00:47:49.624Z,14.73
2019-05-02T00:50:19.321Z,15.30
2019-05-02T00:52:49.295Z,13.33
2019-05-02T00:55:19.306Z,14.20
2019-05-02T00:57:50.847Z,13.33
2019-05-02T01:00:21.221Z,13.83
2019-05-02T01:02:56.133Z,14.17
2019-05-02T01:05:26.213Z,14.00
2019-05-02T01:08:00.769Z,14.53
2019-05-02T01:10:28.039Z,13.20
2019-05-02T01:12:57.961Z,12.23
2019-05-02T01:15:27.952Z,14.33
2019-05-02T01:18:01.170Z,13.23
2019-05-02T01:20:29.498Z,13.87
2019-05-02T01:22:59.402Z,13.73
2019-05-02T01:25:29.495Z,14.03
2019-05-02T01:28:27.399Z,12.97
2019-05-02T01:31:08.198Z,12.67
2019-05-02T01:33:47.633Z,12.93
2019-05-02T01:36:21.514Z,13.07
2019-05-02T01:38:51.595Z,12.53
2019-05-02T01:41:24.109Z,14.13
2019-05-02T01:43:54.858Z,14.30
2019-05-02T01:46:24.833Z,13.90
2019-05-02T01:48:54.774Z,14.10
2019-05-02T01:51:24.718Z,14.47
2019-05-02T01:53:54.605Z,13.00
2019-05-02T01:56:28.452Z,13.03
2019-05-02T01:58:57.701Z,12.63
2019-05-02T02:01:28.223Z,13.53
2019-05-02T02:03:58.178Z,12.80
2019-05-02T02:06:28.177Z,12.93
2019-05-02T02:08:58.190Z,13.07
2019-05-02T02:11:33.269Z,12.57
2019-05-02T02:13:59.803Z,11.50
2019-05-02T02:16:29.700Z,11.77
2019-05-02T02:19:06.285Z,13.70
2019-05-02T02:21:46.026Z,12.73
2019-05-02T02:24:21.202Z,11.83
2019-05-02T02:26:52.334Z,13.47
2019-05-02T02:29:22.262Z,11.43
2019-05-02T02:31:52.192Z,13.43
2019-05-02T02:34:29.420Z,14.27
2019-05-02T02:36:54.182Z,13.13
2019-05-02T02:39:24.126Z,13.97
2019-05-02T02:41:54.349Z,13.33
2019-05-02T02:44:39.825Z,14.40
2019-05-02T02:47:11.978Z,13.30
2019-05-02T02:49:38.692Z,12.27
2019-05-02T02:52:08.685Z,11.97
2019-05-02T02:54:43.403Z,11.67
2019-05-02T02:57:20.082Z,11.57
2019-05-02T02:59:42.351Z,12.10
2019-05-02T03:02:12.577Z,12.10
2019-05-02T03:04:44.695Z,14.20
2019-05-02T03:07:24.121Z,10.83
2019-05-02T03:09:46.259Z,13.43
2019-05-02T03:12:36.097Z,13.87
2019-05-02T03:15:08.901Z,12.00
2019-05-02T03:17:38.839Z,12.27
2019-05-02T03:20:09.066Z,11.97
2019-05-02T03:22:41.933Z,11.00
2019-05-02T03:25:11.449Z,12.10
2019-05-02T03:27:41.594Z,10.37
2019-05-02T03:30:29.354Z,10.60
2019-05-02T03:33:03.553Z,11.70
2019-05-02T03:35:18.949Z,11.53
2019-05-02T03:37:51.407Z,11.57
2019-05-02T03:40:18.670Z,12.00
2019-05-02T03:42:48.790Z,11.57
2019-05-02T03:45:18.722Z,10.97
2019-05-02T03:47:49.447Z,11.87
2019-05-02T03:50:30.682Z,11.30
2019-05-02T03:52:51.208Z,10.77
2019-05-02T03:55:23.675Z,11.03
2019-05-02T03:57:54.075Z,10.63
2019-05-02T04:00:24.587Z,10.23
2019-05-02T04:03:00.321Z,10.40
2019-05-02T04:05:27.190Z,9.60
2019-05-02T04:07:57.262Z,10.60
2019-05-02T04:11:25.017Z,10.80
2019-05-02T04:13:57.109Z,10.50
2019-05-02T04:16:30.041Z,9.30
2019-05-02T04:19:07.326Z,9.70
2019-05-02T04:21:37.660Z,9.90
2019-05-02T04:24:13.312Z,10.00
2019-05-02T04:26:52.590Z,9.17
2019-05-02T04:29:12.339Z,10.00
2019-05-02T04:31:42.437Z,10.00
2019-05-02T04:34:15.315Z,9.47
2019-05-02T04:36:53.405Z,10.17
2019-05-02T04:39:21.679Z,9.90
2019-05-02T04:41:50.273Z,9.13
2019-05-02T04:44:20.659Z,8.50
2019-05-02T04:46:51.354Z,8.67
2019-05-02T04:49:32.913Z,12.07
2019-05-02T04:52:01.838Z,9.73
2019-05-02T04:54:29.079Z,10.40
2019-05-02T04:56:58.996Z,9.67
2019-05-02T04:59:28.883Z,11.60
2019-05-02T05:02:01.336Z,8.93
2019-05-02T05:04:33.066Z,9.87
2019-05-02T05:07:03.289Z,9.60
2019-05-02T05:09:33.597Z,9.83
2019-05-02T05:12:03.674Z,7.93
2019-05-02T05:14:41.269Z,9.03
2019-05-02T05:17:05.370Z,8.10
2019-05-02T05:19:37.338Z,8.73
2019-05-02T05:22:11.662Z,7.20
2019-05-02T05:24:53.930Z,9.07
2019-05-02T05:27:24.298Z,8.93
2019-05-02T05:29:59.504Z,8.03
2019-05-02T05:32:28.064Z,8.30
2019-05-02T05:35:03.271Z,7.80
2019-05-02T05:37:30.662Z,7.30
2019-05-02T05:40:00.602Z,7.83
2019-05-02T05:42:33.343Z,7.27
2019-05-02T05:45:03.803Z,7.83
2019-05-02T05:47:33.804Z,6.90
2019-05-02T05:50:03.951Z,7.47
2019-05-02T05:52:38.688Z,7.40
2019-05-02T05:55:07.664Z,8.07
2019-05-02T05:57:38.470Z,7.40
2019-05-02T06:00:15.564Z,7.00
2019-05-02T06:02:53.242Z,7.20
2019-05-02T06:05:12.672Z,7.60
2019-05-02T06:07:44.953Z,8.03
2019-05-02T06:10:14.338Z,8.10
2019-05-02T06:12:44.258Z,8.53
2019-05-02T06:15:14.681Z,8.60
2019-05-02T06:17:44.635Z,9.33
2019-05-02T06:20:15.621Z,9.93
2019-05-02T06:22:45.632Z,9.07
2019-05-02T06:25:17.182Z,8.07
2019-05-02T06:27:47.185Z,8.63
2019-05-02T06:30:17.631Z,7.70
2019-05-02T06:32:50.032Z,9.37
2019-05-02T06:35:21.264Z,9.10
2019-05-02T06:37:51.952Z,9.53
2019-05-02T06:40:22.194Z,9.27
2019-05-02T06:42:52.109Z,9.43
2019-05-02T06:45:22.309Z,11.23
2019-05-02T06:47:52.253Z,8.27
2019-05-02T06:50:24.750Z,9.83
2019-05-02T06:52:53.995Z,8.43
2019-05-02T06:55:28.133Z,10.07
2019-05-02T06:57:56.996Z,9.20
2019-05-02T07:00:35.701Z,9.90
2019-05-02T07:02:58.961Z,10.20
2019-05-02T07:05:28.906Z,10.47
2019-05-02T07:07:58.907Z,9.47
2019-05-02T07:10:37.858Z,9.97
2019-05-02T07:13:10.077Z,10.67
2019-05-02T07:15:42.977Z,10.43
2019-05-02T07:18:14.827Z,10.73
2019-05-02T07:20:44.888Z,11.67
2019-05-02T07:23:16.303Z,11.80
2019-05-02T07:25:46.610Z,11.50
2019-05-02T07:28:16.787Z,12.53
2019-05-02T07:30:47.055Z,11.50
2019-05-02T07:33:17.619Z,12.77
2019-05-02T07:35:47.860Z,11.07
2019-05-02T07:38:20.117Z,10.73
2019-05-02T07:40:52.989Z,11.23
2019-05-02T07:43:22.488Z,11.87
2019-05-02T07:45:52.712Z,12.10
2019-05-02T07:48:23.050Z,12.80
2019-05-02T07:50:53.544Z,12.93
2019-05-02T07:53:24.057Z,11.67
2019-05-02T07:55:54.214Z,11.70
2019-05-02T07:58:24.252Z,12.27
2019-05-02T08:00:54.146Z,14.00
2019-05-02T08:03:24.348Z,14.33
2019-05-02T08:05:58.154Z,14.97
2019-05-02T08:08:29.857Z,15.00
2019-05-02T08:11:01.877Z,15.17
2019-05-02T08:13:31.433Z,15.70
2019-05-02T08:16:01.629Z,16.17
2019-05-02T08:18:31.774Z,16.37
2019-05-02T08:21:01.756Z,15.50
2019-05-02T08:23:31.822Z,15.20
2019-05-02T08:26:01.741Z,14.60
2019-05-02T08:28:41.305Z,15.00
2019-05-02T08:31:13.508Z,14.80
2019-05-02T08:33:44.450Z,14.03
2019-05-02T08:36:14.444Z,16.53
2019-05-02T08:38:44.420Z,15.40
2019-05-02T08:41:20.069Z,15.90
2019-05-02T08:43:46.656Z,16.50
2019-05-02T08:46:17.457Z,16.10
2019-05-02T08:48:47.530Z,15.30
2019-05-02T08:51:17.857Z,15.33
2019-05-02T08:53:51.925Z,15.77
2019-05-02T08:56:21.290Z,14.57
2019-05-02T08:58:51.489Z,17.57
2019-05-02T09:01:33.994Z,15.40
2019-05-02T09:03:56.560Z,14.53
2019-05-02T09:06:24.641Z,15.23
2019-05-02T09:08:54.558Z,15.13
2019-05-02T09:11:24.671Z,16.30
2019-05-02T09:13:54.637Z,15.93
2019-05-02T09:16:28.750Z,17.53
2019-05-02T09:18:56.815Z,17.17
2019-05-02T09:21:31.458Z,16.70
2019-05-02T09:23:58.671Z,16.07
2019-05-02T09:26:36.061Z,18.43
2019-05-02T09:29:05.119Z,17.53
2019-05-02T09:31:36.690Z,17.10
2019-05-02T09:34:04.459Z,18.10
2019-05-02T09:36:34.394Z,17.90
2019-05-02T09:39:06.652Z,17.37
2019-05-02T09:41:36.605Z,17.73
2019-05-02T09:44:08.882Z,19.80
2019-05-02T09:46:38.636Z,20.10
2019-05-02T09:49:13.454Z,15.67
2019-05-02T09:51:42.018Z,17.60
2019-05-02T09:54:12.139Z,17.10
2019-05-02T09:56:43.092Z,18.00
2019-05-02T09:59:26.642Z,18.97
2019-05-02T10:01:44.734Z,16.70
2019-05-02T10:04:14.739Z,16.43
2019-05-02T10:06:45.121Z,18.43
2019-05-02T10:09:18.756Z,19.87
2019-05-02T10:11:48.182Z,20.77
2019-05-02T10:14:18.172Z,19.00
2019-05-02T10:16:48.159Z,18.70
2019-05-02T10:19:18.474Z,18.83
2019-05-02T10:21:52.561Z,19.70
2019-05-02T10:24:22.057Z,18.73
2019-05-02T10:26:55.327Z,18.80
2019-05-02T10:29:28.389Z,17.50
2019-05-02T10:31:55.341Z,18.07
2019-05-02T10:34:25.278Z,20.30
2019-05-02T10:36:58.946Z,19.53
2019-05-02T10:39:28.462Z,20.03
2019-05-02T10:41:58.588Z,18.10
2019-05-02T10:44:32.828Z,19.40
2019-05-02T10:47:00.211Z,18.90
2019-05-02T10:49:35.798Z,19.10
2019-05-02T10:52:05.904Z,18.23
2019-05-02T10:54:37.548Z,17.17
2019-05-02T10:57:07.697Z,18.07
2019-05-02T10:59:37.717Z,18.40
2019-05-02T11:02:25.375Z,17.67
2019-05-02T11:04:59.333Z,18.20
2019-05-02T11:07:29.500Z,18.57
2019-05-02T11:10:03.078Z,18.30
2019-05-02T11:12:44.153Z,18.83
2019-05-02T11:15:47.540Z,19.23
2019-05-02T11:18:22.207Z,17.80
2019-05-02T11:20:52.929Z,17.97
2019-05-02T11:23:24.539Z,20.33
2019-05-02T11:25:54.851Z,18.33
2019-05-02T11:28:24.811Z,17.97
2019-05-02T11:30:56.946Z,17.00
2019-05-02T11:33:32.553Z,18.93
2019-05-02T11:36:02.657Z,19.37
2019-05-02T11:38:32.867Z,17.97
2019-05-02T11:41:02.960Z,17.67
2019-05-02T11:43:37.010Z,17.87
2019-05-02T11:46:07.223Z,18.80
2019-05-02T11:48:36.562Z,18.17
2019-05-02T11:51:07.296Z,17.53
2019-05-02T11:53:38.153Z,17.90
2019-05-02T11:56:10.926Z,16.97
2019-05-02T11:58:40.851Z,17.00
2019-05-02T12:01:14.302Z,17.63
2019-05-02T12:03:52.486Z,17.37
2019-05-02T12:06:22.713Z,18.33
2019-05-02T12:08:52.838Z,18.70
2019-05-02T12:11:23.160Z,17.00
2019-05-02T12:13:56.988Z,15.97
2019-05-02T12:16:24.787Z,17.00
2019-05-02T12:19:07.909Z,16.83
2019-05-02T12:21:28.681Z,18.00
2019-05-02T12:23:58.567Z,18.70
2019-05-02T12:26:28.812Z,18.60
2019-05-02T12:28:59.185Z,18.23
2019-05-02T12:31:32.375Z,18.10
2019-05-02T12:34:05.248Z,17.17
2019-05-02T12:36:35.241Z,16.30
2019-05-02T12:39:07.845Z,17.73
2019-05-02T12:41:37.858Z,17.13
2019-05-02T12:44:08.003Z,16.70
2019-05-02T12:46:37.967Z,16.47
2019-05-02T12:49:08.057Z,16.67
2019-05-02T12:51:38.082Z,15.67
2019-05-02T12:54:08.107Z,14.60
2019-05-02T12:56:38.113Z,12.83
2019-05-02T12:59:08.100Z,15.03
2019-05-02T13:01:38.081Z,13.33
2019-05-02T13:04:09.994Z,14.53
2019-05-02T13:06:42.002Z,14.30
2019-05-02T13:09:12.922Z,13.07
2019-05-02T13:11:54.663Z,12.60
2019-05-02T13:14:27.253Z,14.47
2019-05-02T13:17:01.413Z,13.77
2019-05-02T13:19:38.007Z,12.97
2019-05-02T13:22:13.612Z,12.27
2019-05-02T13:24:47.094Z,12.13
2019-05-02T13:27:18.520Z,12.73
2019-05-02T13:29:49.849Z,11.47
2019-05-02T13:32:28.342Z,13.30
2019-05-02T13:35:04.790Z,12.00
2019-05-02T13:37:34.770Z,13.00
2019-05-02T13:40:11.825Z,13.23
2019-05-02T13:42:41.910Z,13.33
2019-05-02T13:45:23.520Z,14.27
2019-05-02T13:47:53.672Z,13.67
2019-05-02T13:50:23.703Z,15.67
2019-05-02T13:52:57.938Z,14.13
2019-05-02T13:55:31.759Z,14.27
2019-05-02T13:58:02.289Z,14.43
2019-05-02T14:00:38.995Z,14.80
2019-05-02T14:03:08.958Z,15.30
2019-05-02T14:05:42.007Z,13.63
2019-05-02T14:08:27.499Z,15.27
2019-05-02T14:11:01.900Z,14.93
2019-05-02T14:13:31.867Z,15.57
2019-05-02T14:16:02.351Z,15.63
2019-05-02T14:18:33.577Z,14.67
2019-05-02T14:21:03.767Z,16.73
2019-05-02T14:23:33.767Z,15.80
2019-05-02T14:26:03.795Z,15.37
2019-05-02T14:28:36.238Z,17.40
2019-05-02T14:31:05.884Z,16.47
2019-05-02T14:33:37.558Z,15.90
2019-05-02T14:36:07.566Z,17.17
2019-05-02T14:38:37.539Z,17.87
2019-05-02T14:41:12.589Z,17.83
2019-05-02T14:43:53.569Z,17.30
2019-05-02T14:46:33.253Z,16.47
2019-05-02T14:48:59.209Z,17.47
2019-05-02T14:51:29.215Z,17.73
2019-05-02T14:54:03.660Z,17.53
2019-05-02T14:56:58.860Z,17.63
2019-05-02T14:59:29.082Z,16.87
2019-05-02T15:02:03.834Z,19.07
2019-05-02T15:04:33.190Z,17.37
2019-05-02T15:07:04.747Z,19.37
2019-05-02T15:09:36.393Z,20.40
2019-05-02T15:12:13.547Z,18.43
2019-05-02T15:14:38.521Z,19.00
2019-05-02T15:17:08.779Z,19.03
2019-05-02T15:19:38.709Z,20.33
2019-05-02T15:22:08.699Z,21.67
2019-05-02T15:24:38.646Z,17.33
2019-05-02T15:27:17.293Z,19.77
2019-05-02T15:29:42.000Z,20.33
2019-05-02T15:32:29.562Z,22.90
2019-05-02T15:35:23.059Z,20.30
2019-05-02T15:37:56.606Z,20.70
2019-05-02T15:40:43.264Z,19.50
2019-05-02T15:43:03.602Z,18.30
2019-05-02T15:45:36.638Z,19.07
2019-05-02T15:48:04.996Z,18.87
2019-05-02T15:50:35.276Z,19.50
2019-05-02T15:53:14.511Z,20.00
2019-05-02T15:55:44.578Z,20.20
2019-05-02T15:58:26.021Z,21.13
2019-05-02T16:01:01.669Z,21.93
2019-05-02T16:03:46.649Z,19.07
2019-05-02T16:06:21.815Z,21.37
2019-05-02T16:08:49.510Z,20.83
2019-05-02T16:11:19.938Z,20.07
2019-05-02T16:13:55.508Z,20.40
2019-05-02T16:16:23.439Z,20.30
2019-05-02T16:18:53.350Z,19.60
2019-05-02T16:21:32.710Z,21.57
2019-05-02T16:24:22.945Z,20.83
2019-05-02T16:26:56.950Z,21.07
2019-05-02T16:29:28.419Z,19.87
2019-05-02T16:32:13.315Z,20.23
2019-05-02T16:35:15.298Z,20.90
2019-05-02T16:37:41.979Z,22.37
2019-05-02T16:40:12.530Z,22.17
2019-05-02T16:42:42.772Z,20.00
2019-05-02T16:45:13.234Z,20.60
2019-05-02T16:47:43.190Z,22.30
2019-05-02T16:50:13.694Z,20.03
2019-05-02T16:52:47.193Z,21.00
2019-05-02T16:55:21.273Z,20.23
2019-05-02T16:57:47.790Z,19.37
2019-05-02T17:00:22.663Z,22.90
2019-05-02T17:02:52.684Z,25.27
2019-05-02T17:05:22.643Z,23.90
2019-05-02T17:08:18.792Z,22.53
2019-05-02T17:11:15.591Z,21.17
2019-05-02T17:13:45.063Z,25.13
2019-05-02T17:16:17.116Z,27.13
2019-05-02T17:18:48.281Z,25.33
2019-05-02T17:21:18.171Z,22.20
2019-05-02T17:23:49.829Z,22.67
2019-05-02T17:26:19.816Z,22.50
2019-05-02T17:28:51.628Z,22.40
2019-05-02T17:31:23.029Z,22.67
2019-05-02T17:33:54.957Z,20.70
2019-05-02T17:36:28.511Z,21.03
2019-05-02T17:38:59.323Z,22.10
2019-05-02T17:41:27.906Z,22.20
2019-05-02T17:43:59.146Z,26.77
2019-05-02T17:46:29.087Z,22.43
2019-05-02T17:48:59.044Z,24.73
2019-05-02T17:51:37.841Z,26.03
2019-05-02T17:54:08.694Z,23.07
2019-05-02T17:56:39.131Z,31.17
2019-05-02T17:59:13.029Z,41.50
2019-05-02T18:01:43.970Z,31.37
2019-05-02T18:04:16.452Z,24.67
2019-05-02T18:06:52.335Z,25.03
2019-05-02T18:09:21.662Z,25.97
2019-05-02T18:11:51.805Z,25.00
2019-05-02T18:14:24.057Z,23.27
2019-05-02T18:16:55.557Z,27.57
2019-05-02T18:19:25.409Z,27.23
2019-05-02T18:21:58.085Z,26.33
2019-05-02T18:24:27.407Z,30.50
2019-05-02T18:26:57.578Z,27.57
2019-05-02T18:29:27.448Z,35.03
2019-05-02T18:31:57.346Z,32.93
2019-05-02T18:34:27.230Z,28.90
2019-05-02T18:37:01.944Z,27.93
2019-05-02T18:39:29.157Z,32.17
2019-05-02T18:41:59.107Z,42.60
2019-05-02T18:44:29.039Z,36.73
2019-05-02T18:46:59.088Z,30.80
2019-05-02T18:49:29.439Z,29.63
2019-05-02T18:52:01.625Z,41.13
2019-05-02T18:54:31.458Z,33.33
2019-05-02T18:57:02.496Z,30.57
2019-05-02T18:59:32.676Z,39.53
2019-05-02T19:02:02.675Z,39.60
2019-05-02T19:04:38.053Z,43.63
2019-05-02T19:07:07.522Z,28.63
2019-05-02T19:09:48.190Z,27.67
2019-05-02T19:12:13.556Z,27.80
2019-05-02T19:14:41.875Z,28.63
2019-05-02T19:17:12.250Z,31.00
2019-05-02T19:19:44.159Z,25.97
2019-05-02T19:22:16.997Z,27.50
2019-05-02T19:24:46.366Z,25.20
2019-05-02T19:27:21.008Z,28.70
2019-05-02T19:29:51.719Z,25.20
2019-05-02T19:32:25.339Z,25.87
2019-05-02T19:34:57.804Z,28.87
2019-05-02T19:37:25.249Z,22.30
2019-05-02T19:39:56.794Z,21.87
2019-05-02T19:42:26.764Z,22.67
2019-05-02T19:45:01.051Z,22.30
2019-05-02T19:47:28.574Z,28.93
2019-05-02T19:49:59.802Z,25.60
2019-05-02T19:52:38.795Z,27.40
2019-05-02T19:55:01.350Z,27.70
2019-05-02T19:57:32.401Z,28.90
2019-05-02T20:00:06.558Z,25.73
2019-05-02T20:02:37.454Z,24.33
2019-05-02T20:05:09.238Z,23.50
2019-05-02T20:07:40.334Z,23.03
2019-05-02T20:10:12.265Z,20.63
2019-05-02T20:12:48.215Z,18.17
2019-05-02T20:15:22.793Z,17.60
2019-05-02T20:17:55.316Z,15.80
2019-05-02T20:21:22.992Z,14.13
2019-05-02T20:23:44.318Z,14.53
2019-05-02T20:26:15.197Z,13.57
2019-05-02T20:28:46.096Z,13.80
2019-05-02T20:31:16.703Z,13.93
2019-05-02T20:33:47.933Z,12.97
2019-05-02T20:36:18.069Z,14.57
2019-05-02T20:38:48.031Z,12.40
2019-05-02T20:41:18.817Z,12.43
2019-05-02T20:43:51.663Z,11.30
2019-05-02T20:46:22.046Z,10.37
2019-05-02T20:48:53.461Z,10.30
2019-05-02T20:51:23.468Z,10.63
2019-05-02T20:53:54.859Z,10.00
2019-05-02T20:56:24.822Z,9.63
2019-05-02T20:58:55.411Z,10.40
2019-05-02T21:01:25.474Z,8.37
2019-05-02T21:03:56.163Z,9.03
2019-05-02T21:06:41.133Z,8.40
2019-05-02T21:09:38.600Z,8.23
2019-05-02T21:12:08.608Z,8.27
2019-05-02T21:14:39.116Z,8.10
2019-05-02T21:17:09.525Z,7.70
2019-05-02T21:19:41.761Z,8.43
2019-05-02T21:22:22.203Z,9.60
2019-05-02T21:24:52.836Z,9.50
2019-05-02T21:27:22.914Z,10.10
2019-05-02T21:29:52.832Z,9.03
2019-05-02T21:32:23.061Z,9.20
2019-05-02T21:34:53.109Z,8.63
2019-05-02T21:37:23.014Z,7.47
2019-05-02T21:39:52.901Z,6.77
2019-05-02T21:42:22.816Z,8.53
2019-05-02T21:44:52.776Z,7.13
2019-05-02T21:47:22.750Z,7.20
2019-05-02T21:50:02.154Z,6.83
2019-05-02T21:52:37.551Z,7.53
2019-05-02T21:55:15.349Z,6.83
2019-05-02T21:57:45.223Z,5.83
2019-05-02T22:00:42.038Z,5.80
2019-05-02T22:03:12.610Z,6.60
2019-05-02T22:05:42.785Z,6.27
2019-05-02T22:08:13.040Z,5.63
2019-05-02T22:10:43.008Z,5.23
2019-05-02T22:13:13.032Z,5.03
2019-05-02T22:15:42.931Z,4.70
2019-05-02T22:18:12.915Z,3.80
2019-05-02T22:20:42.873Z,3.80
2019-05-02T22:23:13.807Z,3.80
2019-05-02T22:25:43.741Z,3.10
2019-05-02T22:28:13.641Z,3.00
2019-05-02T22:30:43.518Z,3.50
2019-05-02T22:33:13.439Z,3.20
2019-05-02T22:35:43.459Z,3.97
2019-05-02T22:38:31.793Z,2.77
2019-05-02T22:41:03.597Z,5.07
2019-05-02T22:43:33.561Z,3.20
2019-05-02T22:46:06.391Z,2.60
2019-05-02T22:48:36.372Z,3.30
2019-05-02T22:51:06.245Z,3.23
2019-05-02T22:53:36.128Z,2.83
2019-05-02T22:56:06.065Z,2.73
2019-05-02T22:58:35.966Z,2.40
2019-05-02T23:01:06.592Z,2.33
2019-05-02T23:03:36.468Z,2.23
2019-05-02T23:06:06.501Z,2.03
2019-05-02T23:08:36.378Z,2.70
2019-05-02T23:11:06.314Z,2.20
2019-05-02T23:13:36.183Z,1.93
2019-05-02T23:16:06.114Z,2.20
2019-05-02T23:18:35.995Z,2.30
2019-05-02T23:21:05.942Z,2.67
2019-05-02T23:23:35.814Z,2.07
2019-05-02T23:26:31.754Z,2.40
2019-05-02T23:29:02.401Z,2.13
2019-05-02T23:31:32.247Z,2.20
2019-05-02T23:34:02.290Z,2.17
2019-05-02T23:36:33.024Z,2.30
2019-05-02T23:39:04.638Z,2.10
2019-05-02T23:41:34.558Z,2.33
2019-05-02T23:44:04.593Z,2.40
2019-05-02T23:46:34.489Z,2.37
2019-05-02T23:49:04.514Z,2.30
2019-05-02T23:51:34.413Z,2.40
2019-05-02T23:54:04.369Z,2.50
2019-05-02T23:56:34.257Z,2.37
2019-05-02T23:59:04.212Z,2.60
